This is the latest recevied weather packets stored in our database for station/object KC1BRV. If no packets are shown the sender has not sent any weather packets the latest 1 day(s).
| Time | Temp. | Humidity | Pressure | Rain* | Wind** | Luminosity | Snow |
|---|---|---|---|---|---|---|---|
| 1836274731 | 15° C | 72% | 1020.8 hPa | 0 mm | 0 m/s | 0 W/m² | - |
| 1836274584 | 15° C | 70% | 1020.9 hPa | 0 mm | 0 m/s | 0 W/m² | - |
| 1836274429 | 14.44° C | 74% | 1020.6 hPa | 0 mm | 0 m/s | 0 W/m² | - |
| 1836274283 | 15° C | 71% | 1020.8 hPa | 0 mm | 0 m/s | 0 W/m² | - |
| 1836274128 | 14.44° C | 72% | 1020.5 hPa | 0 mm | 0 m/s | 0 W/m² | - |
| 1778052295 | 14.44° C | 84% | 1012.9 hPa | 0 mm | 0 m/s | 0 W/m² | - |
| 1778051993 | 15° C | 84% | 1012.9 hPa | 0 mm | 0.89 m/s, 77° | 0 W/m² | - |
| 1778051691 | 15° C | 84% | 1012.9 hPa | 0 mm | 0.89 m/s, 117° | 0 W/m² | - |
| 1778051387 | 15° C | 83% | 1012.7 hPa | 0 mm | 0 m/s | 0 W/m² | - |
| 1778051084 | 15° C | 84% | 1012.6 hPa | 0 mm | 0 m/s | 0 W/m² | - |
| 1778050781 | 15° C | 84% | 1012.7 hPa | 0 mm | 0.89 m/s, 32° | 0 W/m² | - |
| 1778050479 | 15° C | 83% | 1012.6 hPa | 0 mm | 0 m/s | 0 W/m² | - |
| 1778050175 | 15° C | 83% | 1012.6 hPa | 0 mm | 0 m/s | 0 W/m² | - |
| 1778049872 | 15° C | 83% | 1012.5 hPa | 0 mm | 0 m/s | 0 W/m² | - |
| 1778049568 | 14.44° C | 83% | 1012.5 hPa | 0 mm | 0 m/s | 0 W/m² | - |
| 1778049266 | 14.44° C | 83% | 1012.7 hPa | 0 mm | 0.45 m/s, 96° | 0 W/m² | - |
| 1778048964 | 14.44° C | 83% | 1012.6 hPa | 0 mm | 0.89 m/s, 81° | 0 W/m² | - |
| 1778048662 | 14.44° C | 83% | 1012.7 hPa | 0 mm | 0.45 m/s, 83° | 0 W/m² | - |
| 1778048358 | 14.44° C | 83% | 1012.6 hPa | 0 mm | 0 m/s | 0 W/m² | - |
| 1778048054 | 14.44° C | 83% | 1012.7 hPa | 0 mm | 0 m/s | 0 W/m² | - |
| 1778047752 | 14.44° C | 83% | 1012.6 hPa | 0 mm | 0.45 m/s, 225° | 0 W/m² | - |
| 1778047450 | 14.44° C | 83% | 1012.6 hPa | 0 mm | 0.45 m/s, 129° | 0 W/m² | - |
| 1778047147 | 14.44° C | 83% | 1013 hPa | 0 mm | 0.45 m/s, 58° | 0 W/m² | - |
| 1778046844 | 14.44° C | 83% | 1012.8 hPa | 0 mm | 0.45 m/s, 83° | 0 W/m² | - |
| 1778046540 | 14.44° C | 83% | 1012.8 hPa | 0 mm | 1.34 m/s, 177° | 0 W/m² | - |
* Rain latest hour (hover to see other rain measurements)
** Current wind speed in m/s (hover to see current wind gust speed)